Time;durP1;ratioP1;P1;durP2;ratioP2;P2;SDS_P1;SDS_P2;PMS_P1;PMS_P2;Temp;Humidity;BMP_temperature;BMP_pressure;BME280_temperature;BME280_humidity;BME280_pressure;Samples;Min_cycle;Max_cycle;Signal;HPM_P1;HPM_P2
2021/01/28 00:01:46;;;;;;;132.10;46.90;;;;;;;;;;5011648;28;20400;-85
2021/01/28 00:04:12;;;;;;;125.43;45.40;;;;;;;;;;4995800;28;20438;-85
2021/01/28 00:06:38;;;;;;;140.10;48.27;;;;;;;;;;5010289;28;20897;-85
2021/01/28 00:09:04;;;;;;;119.77;42.50;;;;;;;;;;5013443;28;20432;-85
2021/01/28 00:11:31;;;;;;;126.53;46.97;;;;;;;;;;5005797;28;20427;-85
2021/01/28 00:13:58;;;;;;;125.67;43.83;;;;;;;;;;4993987;28;20399;-85
2021/01/28 00:16:24;;;;;;;137.00;45.43;;;;;;;;;;4997969;28;21926;-84
2021/01/28 00:18:50;;;;;;;142.07;45.43;;;;;;;;;;5010905;28;20467;-85
2021/01/28 00:21:16;;;;;;;138.57;46.17;;;;;;;;;;4976571;28;20897;-85
2021/01/28 00:23:42;;;;;;;113.03;41.40;;;;;;;;;;4999839;28;20399;-85
2021/01/28 00:26:09;;;;;;;129.80;44.63;;;;;;;;;;4999345;28;20479;-84
2021/01/28 00:28:35;;;;;;;113.97;43.17;;;;;;;;;;4998288;28;20452;-85
2021/01/28 00:31:01;;;;;;;137.93;45.03;;;;;;;;;;5011247;28;20749;-85
2021/01/28 00:33:27;;;;;;;123.00;42.60;;;;;;;;;;4978229;28;20850;-85
2021/01/28 00:35:55;;;;;;;137.67;47.37;;;;;;;;;;4996087;28;20476;-85
2021/01/28 00:38:29;;;;;;;119.87;43.43;;;;;;;;;;4997874;28;20754;-83
2021/01/28 00:40:55;;;;;;;135.73;50.97;;;;;;;;;;5025215;28;20444;-85
2021/01/28 00:43:22;;;;;;;125.90;46.97;;;;;;;;;;5012691;28;20832;-84
2021/01/28 00:45:48;;;;;;;132.30;47.03;;;;;;;;;;4995922;28;20424;-84
2021/01/28 00:48:15;;;;;;;120.47;49.27;;;;;;;;;;5012960;28;20910;-84
2021/01/28 00:50:41;;;;;;;140.80;50.10;;;;;;;;;;4992960;28;20384;-84
2021/01/28 00:53:08;;;;;;;122.73;45.67;;;;;;;;;;4995907;28;20998;-84
2021/01/28 00:55:34;;;;;;;108.90;42.57;;;;;;;;;;5026856;28;20429;-84
2021/01/28 00:58:00;;;;;;;126.70;46.40;;;;;;;;;;4988880;28;20411;-84
2021/01/28 01:00:29;;;;;;;135.53;47.40;;;;;;;;;;5006690;28;20406;-84
2021/01/28 01:02:56;;;;;;;117.73;42.77;;;;;;;;;;4999892;28;20922;-84
2021/01/28 01:05:23;;;;;;;136.30;46.13;;;;;;;;;;4994653;28;20932;-84
2021/01/28 01:07:50;;;;;;;131.70;48.37;;;;;;;;;;5028085;28;21357;-83
2021/01/28 01:10:28;;;;;;;126.20;43.97;;;;;;;;;;5013230;28;20385;-83
2021/01/28 01:12:54;;;;;;;101.33;41.27;;;;;;;;;;4994498;28;20427;-84
2021/01/28 01:15:21;;;;;;;122.37;47.70;;;;;;;;;;4995417;28;20419;-82
2021/01/28 01:17:47;;;;;;;124.50;44.33;;;;;;;;;;4993890;28;20428;-84
2021/01/28 01:20:13;;;;;;;118.00;42.07;;;;;;;;;;4979085;28;20410;-83
2021/01/28 01:22:39;;;;;;;122.37;44.87;;;;;;;;;;4994503;28;20408;-84
2021/01/28 01:25:06;;;;;;;114.87;43.30;;;;;;;;;;5009659;28;20420;-84
2021/01/28 01:27:32;;;;;;;103.77;40.87;;;;;;;;;;5020476;28;20431;-84
2021/01/28 01:29:58;;;;;;;117.07;41.83;;;;;;;;;;4992881;28;21345;-83
2021/01/28 01:32:24;;;;;;;122.97;42.63;;;;;;;;;;4989842;28;20502;-83
2021/01/28 01:34:50;;;;;;;114.53;43.63;;;;;;;;;;5004363;28;20974;-83
2021/01/28 01:37:16;;;;;;;120.67;41.43;;;;;;;;;;4992450;28;20465;-85
2021/01/28 01:39:42;;;;;;;114.67;39.87;;;;;;;;;;4982498;28;21592;-84
2021/01/28 01:42:08;;;;;;;111.77;40.00;;;;;;;;;;5027080;28;20417;-84
2021/01/28 01:44:34;;;;;;;124.60;43.97;;;;;;;;;;5009654;28;20903;-84
2021/01/28 01:47:20;;;;;;;130.93;43.00;;;;;;;;;;5009468;28;21565;-84
2021/01/28 01:49:48;;;;;;;117.40;43.63;;;;;;;;;;4993438;28;20416;-83
2021/01/28 01:52:14;;;;;;;118.07;44.07;;;;;;;;;;4992262;28;20425;-84
2021/01/28 01:54:42;;;;;;;106.90;45.17;;;;;;;;;;4992965;28;20464;-84
2021/01/28 01:57:10;;;;;;;117.23;40.00;;;;;;;;;;4993820;28;20420;-84
2021/01/28 01:59:40;;;;;;;114.47;42.13;;;;;;;;;;5010436;28;20410;-85
2021/01/28 02:02:09;;;;;;;105.43;42.47;;;;;;;;;;5021824;28;21273;-84
2021/01/28 02:04:35;;;;;;;90.03;32.83;;;;;;;;;;5006720;28;20956;-85
2021/01/28 02:07:17;;;;;;;89.40;37.23;;;;;;;;;;4992808;28;20395;-84
2021/01/28 02:09:43;;;;;;;96.20;38.97;;;;;;;;;;5011364;28;20412;-85
2021/01/28 02:12:09;;;;;;;119.67;39.47;;;;;;;;;;4989969;28;20400;-84
2021/01/28 02:14:35;;;;;;;95.30;39.30;;;;;;;;;;4981826;28;20425;-83
2021/01/28 02:17:01;;;;;;;100.80;38.20;;;;;;;;;;5002729;28;20438;-84
2021/01/28 02:19:44;;;;;;;125.30;41.40;;;;;;;;;;5016923;28;20453;-84
2021/01/28 02:22:10;;;;;;;113.77;39.07;;;;;;;;;;5019200;28;20406;-83
2021/01/28 02:24:39;;;;;;;102.23;42.07;;;;;;;;;;5005614;28;20583;-85
2021/01/28 02:27:08;;;;;;;114.67;37.53;;;;;;;;;;5010764;28;20402;-84
2021/01/28 02:29:34;;;;;;;104.63;38.20;;;;;;;;;;5008863;28;20704;-84
2021/01/28 02:32:00;;;;;;;95.63;37.30;;;;;;;;;;5007120;28;20384;-83
2021/01/28 02:34:26;;;;;;;96.90;35.97;;;;;;;;;;4989645;28;20466;-83
2021/01/28 02:36:54;;;;;;;101.40;39.87;;;;;;;;;;5018019;28;20437;-83
2021/01/28 02:39:22;;;;;;;104.47;38.57;;;;;;;;;;5021209;28;20960;-84
2021/01/28 02:41:54;;;;;;;105.40;34.77;;;;;;;;;;4990792;28;20387;-84
2021/01/28 02:44:20;;;;;;;87.37;35.83;;;;;;;;;;4994130;28;20562;-83
2021/01/28 02:46:46;;;;;;;90.57;30.70;;;;;;;;;;5004525;28;20444;-83
2021/01/28 02:49:15;;;;;;;101.90;33.37;;;;;;;;;;5007600;28;20411;-84
2021/01/28 02:51:41;;;;;;;81.17;30.70;;;;;;;;;;5037588;28;20564;-84
2021/01/28 02:54:07;;;;;;;89.07;31.93;;;;;;;;;;4991704;28;20455;-84
2021/01/28 02:56:33;;;;;;;109.00;32.30;;;;;;;;;;4990695;28;20487;-84
2021/01/28 02:58:59;;;;;;;91.13;30.80;;;;;;;;;;4994542;28;20503;-83
2021/01/28 03:01:26;;;;;;;76.27;29.13;;;;;;;;;;4993358;28;20458;-83
2021/01/28 03:03:52;;;;;;;80.23;31.93;;;;;;;;;;4991481;28;20432;-84
2021/01/28 03:06:18;;;;;;;99.80;33.40;;;;;;;;;;5008787;28;20760;-83
2021/01/28 03:08:43;;;;;;;95.40;33.40;;;5.70;99.90;;;;;;5007138;28;20543;-84
2021/01/28 03:11:09;;;;;;;99.70;34.60;;;6.00;99.90;;;;;;4978575;28;20426;-84
2021/01/28 03:13:35;;;;;;;96.10;32.60;;;6.00;99.90;;;;;;5006919;28;20283;-83
2021/01/28 03:16:00;;;;;;;85.40;32.27;;;6.00;99.90;;;;;;5001634;28;20301;-83
2021/01/28 03:18:27;;;;;;;87.70;32.07;;;5.90;99.90;;;;;;5011420;28;20247;-84
2021/01/28 03:20:53;;;;;;;83.60;34.17;;;5.90;99.90;;;;;;4996020;28;20666;-83
2021/01/28 03:23:19;;;;;;;86.27;31.50;;;6.00;99.90;;;;;;5012962;28;20596;-83
2021/01/28 03:25:46;;;;;;;95.53;33.30;;;6.00;99.90;;;;;;4996315;28;20441;-83
2021/01/28 03:28:12;;;;;;;87.30;33.80;;;5.90;99.90;;;;;;4983047;28;20929;-83
2021/01/28 03:30:42;;;;;;;85.93;31.50;;;5.90;99.90;;;;;;4992168;28;22107;-83
2021/01/28 03:33:10;;;;;;;90.47;31.00;;;6.00;99.90;;;;;;5011919;28;20439;-84
2021/01/28 03:35:36;;;;;;;86.90;31.33;;;5.90;99.90;;;;;;5011221;28;20917;-84
2021/01/28 03:38:03;;;;;;;76.23;30.57;;;6.00;99.90;;;;;;5010142;28;21020;-84
2021/01/28 03:40:30;;;;;;;81.63;30.50;;;5.80;99.90;;;;;;4993442;28;20952;-84
2021/01/28 03:42:56;;;;;;;78.97;32.47;;;5.80;99.90;;;;;;5012055;28;20495;-84
2021/01/28 03:45:23;;;;;;;85.00;34.73;;;5.80;99.90;;;;;;5012661;28;20575;-84
2021/01/28 03:47:50;;;;;;;80.17;32.83;;;6.00;99.90;;;;;;5011178;28;20398;-84
2021/01/28 03:50:20;;;;;;;86.60;30.70;;;5.90;99.90;;;;;;5009041;28;20522;-84
2021/01/28 03:52:45;;;;;;;87.87;33.17;;;6.00;99.90;;;;;;5011306;28;20391;-84
2021/01/28 03:55:11;;;;;;;72.73;34.03;;;6.10;99.90;;;;;;4977108;28;21209;-83
2021/01/28 03:57:37;;;;;;;78.03;32.03;;;5.90;99.90;;;;;;4993320;28;20215;-84
2021/01/28 04:00:11;;;;;;;72.80;31.80;;;6.00;99.90;;;;;;4960310;28;20421;-84
2021/01/28 04:02:37;;;;;;;80.53;33.10;;;6.00;99.90;;;;;;5009367;28;20644;-84
2021/01/28 04:05:03;;;;;;;78.23;31.87;;;5.90;99.90;;;;;;5008199;28;20457;-84
2021/01/28 04:07:28;;;;;;;66.37;30.40;;;5.90;99.90;;;;;;5008903;28;20226;-84
2021/01/28 04:09:54;;;;;;;76.07;32.70;;;6.00;99.90;;;;;;4977231;28;20398;-84
2021/01/28 04:12:20;;;;;;;79.40;31.57;;;5.90;99.90;;;;;;4978993;28;20219;-84
2021/01/28 04:14:46;;;;;;;70.17;32.10;;;5.90;99.90;;;;;;5001056;28;20352;-84
2021/01/28 04:17:12;;;;;;;56.37;28.37;;;5.80;99.90;;;;;;4976904;28;20752;-84
2021/01/28 04:19:39;;;;;;;65.00;27.10;;;5.80;99.90;;;;;;5009382;28;20811;-84
2021/01/28 04:22:05;;;;;;;69.00;28.57;;;5.90;99.90;;;;;;4995055;28;21295;-83
2021/01/28 04:24:30;;;;;;;69.20;30.87;;;5.90;99.90;;;;;;5009012;28;20475;-85
2021/01/28 04:26:56;;;;;;;58.97;27.17;;;5.90;99.90;;;;;;4994948;28;20210;-85
2021/01/28 04:29:22;;;;;;;70.53;30.90;;;5.90;99.90;;;;;;4996795;28;20218;-84
2021/01/28 04:31:47;;;;;;;70.43;28.37;;;5.90;99.90;;;;;;4994504;28;20269;-84
2021/01/28 04:34:13;;;;;;;57.00;29.37;;;6.00;99.90;;;;;;4983184;28;20218;-84
2021/01/28 04:36:39;;;;;;;64.40;27.70;;;5.90;99.90;;;;;;5008178;28;20211;-84
2021/01/28 04:39:05;;;;;;;54.33;25.70;;;5.90;99.90;;;;;;4975710;28;20462;-84
2021/01/28 04:41:32;;;;;;;54.33;26.37;;;5.80;99.90;;;;;;5009276;28;20756;-84
2021/01/28 04:44:00;;;;;;;60.00;30.70;;;5.90;99.90;;;;;;5009081;28;20400;-84
2021/01/28 04:46:36;;;;;;;59.33;28.53;;;5.90;99.90;;;;;;5007127;28;20438;-84
2021/01/28 04:49:06;;;;;;;56.20;27.33;;;5.90;99.90;;;;;;5006844;28;20394;-84
2021/01/28 04:51:33;;;;;;;59.50;27.43;;;5.90;99.90;;;;;;5008080;28;20483;-84
2021/01/28 04:54:22;;;;;;;75.53;29.73;;;6.00;99.90;;;;;;4992386;28;21028;-84
2021/01/28 04:56:51;;;;;;;69.60;26.77;;;5.90;99.90;;;;;;5008359;28;20420;-85
2021/01/28 04:59:34;;;;;;;63.40;31.23;;;6.00;99.90;;;;;;4994596;28;20839;-85
2021/01/28 05:02:08;;;;;;;56.93;28.03;;;6.00;99.90;;;;;;5020877;28;20556;-85
2021/01/28 05:04:40;;;;;;;70.53;29.00;;;5.90;99.90;;;;;;4989016;28;20918;-85
2021/01/28 05:07:10;;;;;;;56.23;25.13;;;5.90;99.90;;;;;;5008951;28;20412;-85
2021/01/28 05:09:36;;;;;;;66.60;26.60;;;5.90;99.90;;;;;;5025585;28;20446;-85
2021/01/28 05:12:02;;;;;;;61.63;26.70;;;5.90;99.90;;;;;;4990158;28;20421;-85
2021/01/28 05:14:33;;;;;;;49.13;21.93;;;5.90;99.90;;;;;;5021740;28;20677;-85
2021/01/28 05:17:02;;;;;;;47.60;23.23;;;5.90;99.90;;;;;;4994204;28;20199;-85
2021/01/28 05:19:47;;;;;;;45.70;24.60;;;5.90;99.90;;;;;;5011201;28;20501;-85
2021/01/28 05:22:30;;;;;;;52.30;23.63;;;5.80;99.90;;;;;;5007551;28;20427;-85
2021/01/28 05:24:59;;;;;;;48.77;25.67;;;5.80;99.90;;;;;;4992945;28;20820;-85
2021/01/28 05:27:25;;;;;;;62.23;26.70;;;5.80;99.90;;;;;;5022448;28;20440;-84
2021/01/28 05:29:56;;;;;;;48.93;24.70;;;5.80;99.90;;;;;;5009347;28;20428;-85
2021/01/28 05:32:44;;;;;;;48.87;26.00;;;5.70;99.90;;;;;;5003113;28;20274;-84
2021/01/28 05:35:28;;;;;;;48.43;26.23;;;5.80;99.90;;;;;;5006453;28;20461;-84
2021/01/28 05:38:17;;;;;;;53.20;25.07;;;5.80;99.90;;;;;;5028461;28;20424;-84
2021/01/28 05:40:53;;;;;;;54.90;24.57;;;5.80;99.90;;;;;;4994800;28;20897;-85
2021/01/28 05:43:30;;;;;;;55.63;24.93;;;5.80;99.90;;;;;;5005838;28;20424;-85
2021/01/28 05:46:15;;;;;;;46.87;24.60;;;5.70;99.90;;;;;;4996998;28;20420;-84
2021/01/28 05:48:42;;;;;;;41.57;22.30;;;5.80;99.90;;;;;;5008820;28;20405;-84
2021/01/28 05:51:13;;;;;;;44.60;23.70;;;5.80;99.90;;;;;;4974844;28;20436;-85
2021/01/28 05:53:39;;;;;;;43.50;22.20;;;5.80;99.90;;;;;;4991958;28;20403;-84
2021/01/28 05:56:15;;;;;;;35.87;20.10;;;5.80;99.90;;;;;;5008417;28;20421;-84
2021/01/28 05:58:53;;;;;;;32.33;20.10;;;5.60;99.90;;;;;;4993282;28;20423;-85
2021/01/28 06:01:49;;;;;;;33.60;19.93;;;5.60;99.90;;;;;;4990505;28;20463;-84
2021/01/28 06:04:23;;;;;;;38.70;18.47;;;5.60;99.90;;;;;;5000909;28;20470;-85
2021/01/28 06:07:24;;;;;;;32.43;18.97;;;5.50;99.90;;;;;;5011173;28;20417;-84
2021/01/28 06:10:10;;;;;;;34.33;16.67;;;5.50;99.90;;;;;;5021419;28;20433;-84
2021/01/28 06:13:05;;;;;;;32.77;16.97;;;5.60;99.90;;;;;;5013882;28;20412;-84
2021/01/28 06:15:40;;;;;;;30.60;17.80;;;5.50;99.90;;;;;;5023116;28;20923;-83
2021/01/28 06:18:44;;;;;;;30.40;19.87;;;5.50;99.90;;;;;;5024731;28;20426;-84
2021/01/28 06:21:37;;;;;;;28.60;17.20;;;5.60;99.90;;;;;;4992013;28;20533;-84
2021/01/28 06:24:21;;;;;;;29.83;18.17;;;5.60;99.90;;;;;;5025576;28;21328;-85
2021/01/28 06:27:23;;;;;;;28.40;17.30;;;5.60;99.90;;;;;;4995381;28;20419;-84
2021/01/28 06:30:16;;;;;;;28.60;17.10;;;5.50;99.90;;;;;;5021903;28;20506;-79
2021/01/28 06:33:02;;;;;;;24.10;15.60;;;5.50;99.90;;;;;;5011110;28;20378;-79
2021/01/28 06:35:48;;;;;;;25.63;15.37;;;5.50;99.90;;;;;;5018490;28;20424;-81
2021/01/28 06:38:32;;;;;;;21.67;14.90;;;5.40;99.90;;;;;;5029865;28;20938;-83
2021/01/28 06:41:03;;;;;;;24.80;14.47;;;5.40;99.90;;;;;;5006454;28;20578;-82
2021/01/28 06:43:55;;;;;;;21.63;13.50;;;5.40;99.90;;;;;;5004140;28;20496;-81
2021/01/28 06:46:46;;;;;;;28.20;15.20;;;5.30;99.90;;;;;;5017395;28;20386;-82
2021/01/28 06:49:17;;;;;;;25.87;15.03;;;5.30;99.90;;;;;;5016528;28;20513;-82
2021/01/28 06:51:42;;;;;;;30.07;15.60;;;5.30;99.90;;;;;;4982684;28;21026;-82
2021/01/28 06:54:16;;;;;;;22.60;14.23;;;5.30;99.90;;;;;;5019054;28;20468;-81
2021/01/28 06:56:45;;;;;;;26.83;14.83;;;5.30;99.90;;;;;;5006883;28;20743;-81
2021/01/28 06:59:25;;;;;;;22.30;15.23;;;5.30;99.90;;;;;;5006062;28;20362;-81
2021/01/28 07:02:15;;;;;;;27.33;14.13;;;5.30;99.90;;;;;;5005097;28;20475;-81
2021/01/28 07:05:08;;;;;;;16.97;11.90;;;5.20;99.90;;;;;;4991328;28;20405;-81
2021/01/28 07:07:47;;;;;;;24.77;13.30;;;5.20;99.90;;;;;;5005023;28;20440;-82
2021/01/28 07:10:21;;;;;;;21.60;12.40;;;5.20;99.90;;;;;;4981682;28;20495;-82
2021/01/28 07:12:50;;;;;;;17.87;12.07;;;5.20;99.90;;;;;;5005147;28;20431;-82
2021/01/28 07:15:16;;;;;;;22.43;10.30;;;5.30;99.90;;;;;;4983495;28;20812;-82
2021/01/28 07:17:49;;;;;;;16.10;11.83;;;5.30;99.90;;;;;;4986247;28;20436;-82
2021/01/28 07:20:41;;;;;;;16.03;10.93;;;5.20;99.90;;;;;;4991017;28;20441;-82
2021/01/28 07:23:30;;;;;;;16.63;10.90;;;5.20;99.90;;;;;;4991027;28;20426;-82
2021/01/28 07:26:20;;;;;;;16.83;10.57;;;5.20;99.90;;;;;;5035243;28;20487;-82
2021/01/28 07:28:48;;;;;;;15.33;10.30;;;5.20;99.90;;;;;;4983904;28;20488;-82
2021/01/28 07:31:21;;;;;;;16.40;9.70;;;5.20;99.90;;;;;;5004355;28;20400;-82
2021/01/28 07:34:09;;;;;;;15.93;9.53;;;5.20;99.90;;;;;;4990168;28;20421;-82
2021/01/28 07:36:39;;;;;;;12.23;8.10;;;5.20;99.90;;;;;;5017000;28;20488;-82
2021/01/28 07:39:26;;;;;;;14.40;9.03;;;5.10;99.90;;;;;;5021292;28;20412;-83
2021/01/28 07:41:57;;;;;;;16.87;9.80;;;5.20;99.90;;;;;;5021399;28;20486;-83
2021/01/28 07:44:29;;;;;;;11.50;8.47;;;5.20;99.90;;;;;;5006032;28;20394;-83
2021/01/28 07:46:58;;;;;;;12.70;8.40;;;5.10;99.90;;;;;;5019178;28;20413;-83
2021/01/28 07:49:29;;;;;;;13.33;8.27;;;5.00;99.90;;;;;;4986463;28;21157;-83
2021/01/28 07:52:00;;;;;;;9.43;6.60;;;5.10;99.90;;;;;;5017300;28;20485;-83
2021/01/28 07:54:25;;;;;;;16.27;6.77;;;5.10;99.90;;;;;;5017261;28;20441;-84
2021/01/28 07:56:58;;;;;;;9.60;7.60;;;5.10;99.90;;;;;;5004058;28;20435;-83
2021/01/28 07:59:54;;;;;;;12.97;6.63;;;5.20;99.90;;;;;;4986576;28;20241;-83
2021/01/28 08:02:36;;;;;;;10.87;6.93;;;5.10;99.90;;;;;;5003456;28;21106;-83
2021/01/28 08:05:05;;;;;;;10.60;6.40;;;5.10;99.90;;;;;;5014994;28;20369;-83
2021/01/28 08:07:33;;;;;;;15.37;7.13;;;5.10;99.90;;;;;;5011575;28;20483;-83
2021/01/28 08:10:02;;;;;;;11.27;7.63;;;5.10;99.90;;;;;;4996387;28;20440;-83
2021/01/28 08:12:36;;;;;;;12.67;8.33;;;5.10;99.90;;;;;;5013279;28;21322;-83
2021/01/28 08:15:16;;;;;;;12.10;7.80;;;5.10;99.90;;;;;;4981243;28;20424;-83
2021/01/28 08:17:42;;;;;;;12.40;6.97;;;5.00;99.90;;;;;;4996545;28;20415;-82
2021/01/28 08:20:22;;;;;;;14.47;7.73;;;5.10;99.90;;;;;;4979308;28;21475;-83
2021/01/28 08:22:56;;;;;;;11.90;6.97;;;5.00;99.90;;;;;;4983045;28;20220;-83
2021/01/28 08:25:24;;;;;;;11.63;8.03;;;5.10;99.90;;;;;;4995981;28;20432;-82
2021/01/28 08:27:49;;;;;;;14.63;6.77;;;5.00;99.90;;;;;;4998699;28;20429;-82
2021/01/28 08:30:20;;;;;;;10.80;6.80;;;5.10;99.90;;;;;;4987267;28;20392;-82
2021/01/28 08:32:47;;;;;;;10.00;7.00;;;5.10;99.90;;;;;;5003285;28;20295;-82
2021/01/28 08:35:38;;;;;;;11.40;6.60;;;5.10;99.90;;;;;;5012212;28;20384;-82
2021/01/28 08:38:16;;;;;;;7.67;6.97;;;5.00;99.90;;;;;;5038773;28;21961;-82
2021/01/28 08:40:44;;;;;;;10.77;6.30;;;5.10;99.90;;;;;;5024431;28;20452;-82
2021/01/28 08:43:19;;;;;;;13.03;6.87;;;5.10;99.90;;;;;;5012168;28;20440;-83
2021/01/28 08:45:45;;;;;;;7.67;5.70;;;5.10;99.90;;;;;;5009839;28;20431;-83
2021/01/28 08:48:15;;;;;;;6.50;5.67;;;5.10;99.90;;;;;;4978211;28;20516;-82
2021/01/28 08:50:42;;;;;;;8.50;6.03;;;5.10;99.90;;;;;;4993910;28;20801;-82
2021/01/28 08:53:23;;;;;;;8.60;5.70;;;5.10;99.90;;;;;;5009079;28;22451;-82
2021/01/28 08:55:49;;;;;;;7.50;5.73;;;5.10;99.90;;;;;;4994597;28;20439;-82
2021/01/28 08:58:29;;;;;;;7.57;5.83;;;5.10;99.90;;;;;;5018369;28;20419;-82
2021/01/28 09:01:03;;;;;;;8.53;5.73;;;5.10;99.90;;;;;;5026866;28;20427;-82
2021/01/28 09:03:41;;;;;;;7.50;4.97;;;5.10;99.90;;;;;;4995124;28;20439;-82
2021/01/28 09:06:07;;;;;;;5.80;4.83;;;5.10;99.90;;;;;;5006641;28;20498;-82
2021/01/28 09:08:33;;;;;;;7.27;4.77;;;5.10;99.90;;;;;;4977641;28;21390;-83
2021/01/28 09:11:14;;;;;;;6.83;4.10;;;5.10;99.90;;;;;;4994475;28;20428;-81
2021/01/28 09:13:40;;;;;;;4.23;3.80;;;5.10;99.90;;;;;;5006144;28;21071;-83
2021/01/28 09:16:08;;;;;;;4.90;3.77;;;5.00;99.90;;;;;;4996043;28;20411;-83
2021/01/28 09:18:38;;;;;;;4.70;3.87;;;5.00;99.90;;;;;;5006331;28;20366;-82
2021/01/28 09:21:06;;;;;;;7.57;3.97;;;5.00;99.90;;;;;;5005985;28;20395;-82
2021/01/28 09:23:33;;;;;;;7.30;4.40;;;5.10;99.90;;;;;;5000014;28;20415;-84
2021/01/28 09:26:12;;;;;;;5.73;4.27;;;5.00;99.90;;;;;;5023917;28;20411;-83
2021/01/28 09:28:39;;;;;;;6.67;3.70;;;5.00;99.90;;;;;;5004422;28;20409;-82
2021/01/28 09:31:24;;;;;;;8.00;4.30;;;5.00;99.90;;;;;;4999202;28;20418;-82
2021/01/28 09:33:50;;;;;;;6.50;3.67;;;5.10;99.90;;;;;;4999855;28;20438;-83
2021/01/28 09:36:25;;;;;;;6.43;4.60;;;5.20;99.90;;;;;;5014060;28;20523;-82
2021/01/28 09:39:05;;;;;;;7.17;4.37;;;5.20;99.90;;;;;;5018840;28;20415;-82
2021/01/28 09:41:41;;;;;;;5.87;4.10;;;5.20;99.90;;;;;;4987777;28;20391;-82
2021/01/28 09:44:26;;;;;;;4.67;3.97;;;5.20;99.90;;;;;;4990667;28;20375;-82
2021/01/28 09:47:11;;;;;;;4.80;3.60;;;5.20;99.90;;;;;;5011665;28;20415;-82
2021/01/28 09:50:03;;;;;;;6.70;4.27;;;5.20;99.90;;;;;;5004927;28;20904;-82
2021/01/28 09:52:31;;;;;;;10.00;4.63;;;5.20;99.90;;;;;;4920382;28;20480;-82
2021/01/28 09:55:05;;;;;;;5.80;4.77;;;5.30;99.90;;;;;;4925117;28;20422;-83
2021/01/28 09:57:31;;;;;;;6.97;5.70;;;5.40;99.90;;;;;;4920275;28;20429;-82
2021/01/28 09:59:57;;;;;;;7.77;4.20;;;5.30;99.90;;;;;;4942025;28;21851;-82
2021/01/28 10:02:43;;;;;;;6.20;4.73;;;5.40;99.90;;;;;;4940374;28;20222;-82
2021/01/28 10:05:10;;;;;;;6.77;4.37;;;5.40;99.90;;;;;;4902200;28;20408;-82
2021/01/28 10:07:36;;;;;;;5.90;4.23;;;5.40;99.90;;;;;;4909074;28;20435;-83
2021/01/28 10:10:04;;;;;;;8.50;4.83;;;5.40;99.90;;;;;;4924351;28;20538;-82
2021/01/28 10:12:31;;;;;;;6.70;4.17;;;5.50;99.90;;;;;;4909615;28;20554;-82
2021/01/28 10:14:57;;;;;;;7.30;4.40;;;5.40;99.90;;;;;;4891165;28;21217;-82
2021/01/28 10:17:25;;;;;;;10.10;6.10;;;5.50;99.90;;;;;;4902517;28;20443;-82
2021/01/28 10:19:51;;;;;;;13.37;7.83;;;5.50;99.90;;;;;;4910114;28;20424;-83
2021/01/28 10:22:19;;;;;;;13.40;10.53;;;5.60;99.90;;;;;;4921011;28;21253;-82
2021/01/28 10:24:49;;;;;;;16.33;11.13;;;5.50;99.90;;;;;;4935875;28;20949;-82
2021/01/28 10:27:15;;;;;;;16.80;11.43;;;5.60;99.90;;;;;;4938701;28;20843;-82
2021/01/28 10:29:43;;;;;;;16.73;10.20;;;5.60;99.90;;;;;;4965674;28;20399;-81
2021/01/28 10:32:12;;;;;;;14.33;9.90;;;5.60;99.90;;;;;;4998385;28;20401;-82
2021/01/28 10:34:39;;;;;;;16.30;11.40;;;5.60;99.90;;;;;;4997491;28;20418;-83
2021/01/28 10:37:06;;;;;;;22.27;14.67;;;5.50;99.90;;;;;;5015933;28;20450;-83
2021/01/28 10:39:32;;;;;;;23.13;15.07;;;5.50;99.90;;;;;;5001654;28;20413;-83
2021/01/28 10:41:58;;;;;;;25.30;17.47;;;5.60;99.90;;;;;;4998978;28;20461;-83
2021/01/28 10:44:24;;;;;;;29.17;16.73;;;5.60;99.90;;;;;;5001326;28;20466;-82
2021/01/28 10:46:50;;;;;;;31.93;17.33;;;5.60;99.90;;;;;;4998594;28;20469;-82
2021/01/28 10:49:17;;;;;;;26.63;15.83;;;5.60;99.90;;;;;;4969000;28;20940;-82
2021/01/28 10:51:46;;;;;;;21.70;13.20;;;5.70;99.90;;;;;;4968000;28;20462;-82
2021/01/28 10:54:12;;;;;;;15.20;11.67;;;5.80;99.90;;;;;;4997665;28;20967;-82
2021/01/28 10:56:38;;;;;;;16.60;10.17;;;5.70;99.90;;;;;;5001620;28;20543;-81
2021/01/28 10:59:03;;;;;;;13.53;10.07;;;5.70;99.90;;;;;;4965963;28;20216;-83
2021/01/28 11:01:30;;;;;;;14.80;9.77;;;5.70;99.90;;;;;;4979424;28;20214;-82
2021/01/28 11:03:56;;;;;;;15.47;10.80;;;5.70;99.90;;;;;;4981285;28;20284;-82
2021/01/28 11:06:22;;;;;;;13.80;9.70;;;5.70;99.90;;;;;;4966960;28;20451;-82
2021/01/28 11:08:49;;;;;;;11.80;8.90;;;5.70;99.90;;;;;;4984059;28;20259;-82
2021/01/28 11:11:17;;;;;;;15.40;8.47;;;5.70;99.90;;;;;;4978073;28;20495;-82
2021/01/28 11:13:46;;;;;;;16.60;9.87;;;5.70;99.90;;;;;;5011984;28;22771;-81
2021/01/28 11:16:13;;;;;;;10.70;8.07;;;5.70;99.90;;;;;;5008132;28;20420;-81
2021/01/28 11:18:39;;;;;;;10.60;8.33;;;5.70;99.90;;;;;;4985653;28;20908;-81
2021/01/28 11:21:05;;;;;;;13.03;8.77;;;5.70;99.90;;;;;;5012044;28;20456;-81
2021/01/28 11:23:31;;;;;;;12.43;8.60;;;5.80;99.90;;;;;;4993035;28;20218;-82
2021/01/28 11:25:57;;;;;;;14.43;9.77;;;5.70;99.90;;;;;;5026619;28;20476;-82
2021/01/28 11:28:22;;;;;;;9.87;8.07;;;5.80;99.90;;;;;;4994749;28;20231;-82
2021/01/28 11:30:48;;;;;;;16.17;8.60;;;5.70;99.90;;;;;;4992839;28;20241;-82
2021/01/28 11:33:15;;;;;;;11.77;9.90;;;5.70;99.90;;;;;;5011481;28;20555;-82
2021/01/28 11:35:40;;;;;;;11.47;8.07;;;5.70;99.90;;;;;;4988569;28;20256;-82
2021/01/28 11:38:08;;;;;;;13.97;7.07;;;5.70;99.90;;;;;;5005298;28;20499;-81
2021/01/28 11:40:36;;;;;;;10.53;7.80;;;5.70;99.90;;;;;;4993158;28;20290;-81
2021/01/28 11:43:04;;;;;;;10.97;8.40;;;5.70;99.90;;;;;;5015355;28;20424;-81
2021/01/28 11:45:33;;;;;;;12.90;8.77;;;5.70;99.90;;;;;;4989622;28;20472;-81
2021/01/28 11:47:59;;;;;;;12.87;9.13;;;5.70;99.90;;;;;;4988412;28;20520;-82
2021/01/28 11:50:48;;;;;;;14.67;8.67;;;5.70;99.90;;;;;;4992166;28;20591;-81
2021/01/28 11:53:14;;;;;;;10.33;7.63;;;5.70;99.90;;;;;;4949304;28;20665;-81
2021/01/28 11:55:40;;;;;;;9.53;6.37;;;5.70;99.90;;;;;;4945388;28;20458;-82
2021/01/28 11:58:06;;;;;;;14.43;7.93;;;5.60;99.90;;;;;;4911305;28;20820;-81
2021/01/28 12:00:31;;;;;;;8.77;7.27;;;5.60;99.90;;;;;;4934654;28;20220;-80
2021/01/28 12:02:57;;;;;;;9.20;6.60;;;5.60;99.90;;;;;;4936317;28;20330;-81
2021/01/28 12:05:26;;;;;;;9.00;6.80;;;5.70;99.90;;;;;;4936454;28;20456;-81
2021/01/28 12:07:53;;;;;;;11.63;7.50;;;5.70;99.90;;;;;;4934574;28;20511;-82
2021/01/28 12:10:20;;;;;;;9.57;7.27;;;5.50;99.90;;;;;;4930979;28;20391;-82
2021/01/28 12:12:47;;;;;;;10.00;7.30;;;5.60;99.90;;;;;;4929126;28;20407;-83
2021/01/28 12:15:13;;;;;;;11.07;7.00;;;5.60;99.90;;;;;;4935206;28;20428;-82
2021/01/28 12:17:39;;;;;;;7.87;7.03;;;5.70;99.90;;;;;;4931729;28;20512;-82
2021/01/28 12:20:07;;;;;;;9.80;6.10;;;5.70;99.90;;;;;;4936267;28;20811;-82
2021/01/28 12:22:33;;;;;;;7.67;6.63;;;5.70;99.90;;;;;;4932520;28;20219;-82
2021/01/28 12:24:59;;;;;;;8.27;6.10;;;5.70;99.90;;;;;;4954881;28;21697;-81
2021/01/28 12:27:25;;;;;;;7.93;6.17;;;5.70;99.90;;;;;;4942230;28;20248;-82
2021/01/28 12:29:51;;;;;;;8.83;7.10;;;5.60;99.90;;;;;;4956616;28;20214;-82
2021/01/28 12:32:16;;;;;;;8.20;6.53;;;5.70;99.90;;;;;;5026536;28;20442;-82
2021/01/28 12:34:42;;;;;;;10.23;6.73;;;5.80;99.90;;;;;;4998763;28;20214;-83
2021/01/28 12:37:09;;;;;;;9.20;6.80;;;5.70;99.90;;;;;;4965341;28;20230;-84
2021/01/28 12:39:34;;;;;;;10.53;6.93;;;5.70;99.90;;;;;;5044886;28;20313;-83
2021/01/28 12:42:01;;;;;;;8.37;6.93;;;5.70;99.90;;;;;;5016519;28;20847;-83
2021/01/28 12:44:29;;;;;;;8.13;6.67;;;5.80;99.90;;;;;;4995023;28;20203;-84
2021/01/28 12:46:55;;;;;;;8.60;6.47;;;5.80;99.90;;;;;;4993640;28;20464;-83
2021/01/28 12:49:20;;;;;;;7.10;6.07;;;6.00;99.90;;;;;;5011154;28;20433;-84
2021/01/28 12:51:47;;;;;;;7.97;7.17;;;6.10;99.90;;;;;;5009768;28;20943;-83
2021/01/28 12:54:13;;;;;;;9.00;5.87;;;6.30;99.90;;;;;;4995783;28;20262;-83
2021/01/28 12:56:39;;;;;;;8.37;7.50;;;6.30;99.90;;;;;;5011387;28;20439;-83
2021/01/28 12:59:05;;;;;;;7.27;6.13;;;6.30;99.90;;;;;;5012349;28;20210;-83
2021/01/28 13:01:32;;;;;;;11.27;7.73;;;6.40;99.90;;;;;;4976231;28;20438;-84
2021/01/28 13:03:57;;;;;;;8.70;7.87;;;6.40;99.90;;;;;;4982388;28;20206;-81
2021/01/28 13:06:23;;;;;;;9.27;7.07;;;6.30;99.90;;;;;;4994979;28;20420;-82
2021/01/28 13:08:49;;;;;;;11.47;8.93;;;6.30;99.90;;;;;;4977695;28;20229;-81
2021/01/28 13:11:14;;;;;;;12.10;9.70;;;6.30;99.90;;;;;;4995520;28;20293;-83
2021/01/28 13:13:42;;;;;;;11.20;8.00;;;6.40;99.90;;;;;;4993901;28;20216;-83
2021/01/28 13:16:08;;;;;;;9.53;8.33;;;6.40;99.90;;;;;;5042061;28;20211;-82
2021/01/28 13:18:34;;;;;;;9.73;8.03;;;6.30;99.90;;;;;;5010699;28;20371;-83
2021/01/28 13:21:00;;;;;;;9.73;7.70;;;6.10;99.90;;;;;;5012308;28;20410;-83